sensor_id;sensor_type;location;lat;lon;timestamp;temperature;humidity
51567;DHT22;37657;53.182;5.638;2022-07-23T00:00:10;13.90;99.90
51567;DHT22;37657;53.182;5.638;2022-07-23T00:02:36;13.80;99.90
51567;DHT22;37657;53.182;5.638;2022-07-23T00:05:02;13.90;99.90
51567;DHT22;37657;53.182;5.638;2022-07-23T00:07:27;14.00;99.90
51567;DHT22;37657;53.182;5.638;2022-07-23T00:09:53;13.90;99.90
51567;DHT22;37657;53.182;5.638;2022-07-23T00:12:19;13.90;99.90
51567;DHT22;37657;53.182;5.638;2022-07-23T00:14:44;13.90;99.90
51567;DHT22;37657;53.182;5.638;2022-07-23T00:17:10;13.90;99.90
51567;DHT22;37657;53.182;5.638;2022-07-23T00:19:35;13.90;99.90
51567;DHT22;37657;53.182;5.638;2022-07-23T00:22:01;13.90;99.90
51567;DHT22;37657;53.182;5.638;2022-07-23T00:24:26;13.80;99.90
51567;DHT22;37657;53.182;5.638;2022-07-23T00:26:52;13.90;99.90
51567;DHT22;37657;53.182;5.638;2022-07-23T00:29:18;13.80;99.90
51567;DHT22;37657;53.182;5.638;2022-07-23T00:31:43;13.80;99.90
51567;DHT22;37657;53.182;5.638;2022-07-23T00:34:09;13.80;99.90
51567;DHT22;37657;53.182;5.638;2022-07-23T00:36:34;13.70;99.90
51567;DHT22;37657;53.182;5.638;2022-07-23T00:39:00;13.70;99.90
51567;DHT22;37657;53.182;5.638;2022-07-23T00:41:25;13.70;99.90
51567;DHT22;37657;53.182;5.638;2022-07-23T00:43:51;13.70;99.90
51567;DHT22;37657;53.182;5.638;2022-07-23T00:46:23;13.60;99.90
51567;DHT22;37657;53.182;5.638;2022-07-23T00:48:50;13.50;99.90
51567;DHT22;37657;53.182;5.638;2022-07-23T00:51:16;13.30;99.90
51567;DHT22;37657;53.182;5.638;2022-07-23T00:53:42;13.30;99.90
51567;DHT22;37657;53.182;5.638;2022-07-23T00:56:08;13.20;99.90
51567;DHT22;37657;53.182;5.638;2022-07-23T00:58:35;13.20;99.90
51567;DHT22;37657;53.182;5.638;2022-07-23T01:01:01;13.10;99.90
51567;DHT22;37657;53.182;5.638;2022-07-23T01:03:27;13.10;99.90
51567;DHT22;37657;53.182;5.638;2022-07-23T01:05:53;13.10;99.90
51567;DHT22;37657;53.182;5.638;2022-07-23T01:08:19;13.10;99.90
51567;DHT22;37657;53.182;5.638;2022-07-23T01:10:46;13.00;99.90
51567;DHT22;37657;53.182;5.638;2022-07-23T01:13:12;13.00;99.90
51567;DHT22;37657;53.182;5.638;2022-07-23T01:15:38;13.00;99.90
51567;DHT22;37657;53.182;5.638;2022-07-23T01:18:06;13.10;99.90
51567;DHT22;37657;53.182;5.638;2022-07-23T01:20:32;13.20;99.90
51567;DHT22;37657;53.182;5.638;2022-07-23T01:22:58;13.20;99.90
51567;DHT22;37657;53.182;5.638;2022-07-23T01:25:24;13.40;99.90
51567;DHT22;37657;53.182;5.638;2022-07-23T01:27:51;13.20;99.90
51567;DHT22;37657;53.182;5.638;2022-07-23T01:30:17;13.40;99.90
51567;DHT22;37657;53.182;5.638;2022-07-23T01:32:43;13.40;99.90
51567;DHT22;37657;53.182;5.638;2022-07-23T01:35:09;13.50;99.90
51567;DHT22;37657;53.182;5.638;2022-07-23T01:37:35;13.60;99.90
51567;DHT22;37657;53.182;5.638;2022-07-23T01:40:00;13.50;99.90
51567;DHT22;37657;53.182;5.638;2022-07-23T01:42:26;13.60;99.90
51567;DHT22;37657;53.182;5.638;2022-07-23T01:44:52;13.60;99.90
51567;DHT22;37657;53.182;5.638;2022-07-23T01:47:17;13.50;99.90
51567;DHT22;37657;53.182;5.638;2022-07-23T01:49:43;13.60;99.90
51567;DHT22;37657;53.182;5.638;2022-07-23T01:52:09;13.60;99.90
51567;DHT22;37657;53.182;5.638;2022-07-23T01:54:37;13.60;99.90
51567;DHT22;37657;53.182;5.638;2022-07-23T01:57:03;13.60;99.90
51567;DHT22;37657;53.182;5.638;2022-07-23T01:59:29;13.70;99.90
51567;DHT22;37657;53.182;5.638;2022-07-23T02:01:55;13.60;99.90
51567;DHT22;37657;53.182;5.638;2022-07-23T02:04:21;13.50;99.90
51567;DHT22;37657;53.182;5.638;2022-07-23T02:06:48;13.50;99.90
51567;DHT22;37657;53.182;5.638;2022-07-23T02:09:14;13.50;99.90
51567;DHT22;37657;53.182;5.638;2022-07-23T02:11:39;13.40;99.90
51567;DHT22;37657;53.182;5.638;2022-07-23T02:14:07;13.30;99.90
51567;DHT22;37657;53.182;5.638;2022-07-23T02:16:33;13.20;99.90
51567;DHT22;37657;53.182;5.638;2022-07-23T02:18:58;13.30;99.90
51567;DHT22;37657;53.182;5.638;2022-07-23T02:21:24;13.20;99.90
51567;DHT22;37657;53.182;5.638;2022-07-23T02:23:50;13.10;99.90
51567;DHT22;37657;53.182;5.638;2022-07-23T02:26:15;13.10;99.90
51567;DHT22;37657;53.182;5.638;2022-07-23T02:28:41;13.10;99.90
51567;DHT22;37657;53.182;5.638;2022-07-23T02:31:06;13.00;99.90
51567;DHT22;37657;53.182;5.638;2022-07-23T02:33:32;13.00;99.90
51567;DHT22;37657;53.182;5.638;2022-07-23T02:35:59;13.10;99.90
51567;DHT22;37657;53.182;5.638;2022-07-23T02:38:24;13.20;99.90
51567;DHT22;37657;53.182;5.638;2022-07-23T02:40:50;13.20;99.90
51567;DHT22;37657;53.182;5.638;2022-07-23T02:43:15;13.20;99.90
51567;DHT22;37657;53.182;5.638;2022-07-23T02:45:41;13.20;99.90
51567;DHT22;37657;53.182;5.638;2022-07-23T02:48:07;13.10;99.90
51567;DHT22;37657;53.182;5.638;2022-07-23T02:50:32;13.10;99.90
51567;DHT22;37657;53.182;5.638;2022-07-23T02:52:58;13.10;99.90
51567;DHT22;37657;53.182;5.638;2022-07-23T02:55:24;13.00;99.90
51567;DHT22;37657;53.182;5.638;2022-07-23T02:57:49;13.10;99.90
51567;DHT22;37657;53.182;5.638;2022-07-23T03:00:15;13.10;99.90
51567;DHT22;37657;53.182;5.638;2022-07-23T03:02:40;13.10;99.90
51567;DHT22;37657;53.182;5.638;2022-07-23T03:05:06;13.00;99.90
51567;DHT22;37657;53.182;5.638;2022-07-23T03:07:32;13.10;99.90
51567;DHT22;37657;53.182;5.638;2022-07-23T03:09:58;13.00;99.90
51567;DHT22;37657;53.182;5.638;2022-07-23T03:12:23;13.00;99.90
51567;DHT22;37657;53.182;5.638;2022-07-23T03:14:49;13.00;99.90
51567;DHT22;37657;53.182;5.638;2022-07-23T03:17:14;13.10;99.90
51567;DHT22;37657;53.182;5.638;2022-07-23T03:19:40;13.00;99.90
51567;DHT22;37657;53.182;5.638;2022-07-23T03:22:06;12.90;99.90
51567;DHT22;37657;53.182;5.638;2022-07-23T03:24:32;12.90;99.90
51567;DHT22;37657;53.182;5.638;2022-07-23T03:27:16;13.00;99.90
51567;DHT22;37657;53.182;5.638;2022-07-23T03:29:41;12.80;99.90
51567;DHT22;37657;53.182;5.638;2022-07-23T03:32:07;12.90;99.90
51567;DHT22;37657;53.182;5.638;2022-07-23T03:34:33;12.90;99.90
51567;DHT22;37657;53.182;5.638;2022-07-23T03:36:58;12.80;99.90
51567;DHT22;37657;53.182;5.638;2022-07-23T03:39:24;12.70;99.90
51567;DHT22;37657;53.182;5.638;2022-07-23T03:41:49;12.50;99.90
51567;DHT22;37657;53.182;5.638;2022-07-23T03:44:15;12.60;99.90
51567;DHT22;37657;53.182;5.638;2022-07-23T03:46:40;12.50;99.90
51567;DHT22;37657;53.182;5.638;2022-07-23T03:49:06;12.40;99.90
51567;DHT22;37657;53.182;5.638;2022-07-23T03:51:31;12.40;99.90
51567;DHT22;37657;53.182;5.638;2022-07-23T03:53:57;12.40;99.90
51567;DHT22;37657;53.182;5.638;2022-07-23T03:56:23;12.40;99.90
51567;DHT22;37657;53.182;5.638;2022-07-23T03:58:48;12.40;99.90
51567;DHT22;37657;53.182;5.638;2022-07-23T04:01:14;12.50;99.90
51567;DHT22;37657;53.182;5.638;2022-07-23T04:03:39;12.60;99.90
51567;DHT22;37657;53.182;5.638;2022-07-23T04:06:06;12.60;99.90
51567;DHT22;37657;53.182;5.638;2022-07-23T04:08:31;12.60;99.90
51567;DHT22;37657;53.182;5.638;2022-07-23T04:10:57;12.60;99.90
51567;DHT22;37657;53.182;5.638;2022-07-23T04:13:22;12.70;99.90
51567;DHT22;37657;53.182;5.638;2022-07-23T04:15:48;12.60;99.90
51567;DHT22;37657;53.182;5.638;2022-07-23T04:18:14;12.60;99.90
51567;DHT22;37657;53.182;5.638;2022-07-23T04:20:42;12.70;99.90
51567;DHT22;37657;53.182;5.638;2022-07-23T04:23:08;12.50;99.90
51567;DHT22;37657;53.182;5.638;2022-07-23T04:25:35;12.50;99.90
51567;DHT22;37657;53.182;5.638;2022-07-23T04:28:01;12.70;99.90
51567;DHT22;37657;53.182;5.638;2022-07-23T04:30:26;12.60;99.90
51567;DHT22;37657;53.182;5.638;2022-07-23T04:32:52;12.50;99.90
51567;DHT22;37657;53.182;5.638;2022-07-23T04:35:17;12.60;99.90
51567;DHT22;37657;53.182;5.638;2022-07-23T04:37:43;12.60;99.90
51567;DHT22;37657;53.182;5.638;2022-07-23T04:40:09;12.70;99.90
51567;DHT22;37657;53.182;5.638;2022-07-23T04:42:35;12.70;99.90
51567;DHT22;37657;53.182;5.638;2022-07-23T04:45:00;12.70;99.90
51567;DHT22;37657;53.182;5.638;2022-07-23T04:47:26;12.70;99.90
51567;DHT22;37657;53.182;5.638;2022-07-23T04:49:52;12.80;99.90
51567;DHT22;37657;53.182;5.638;2022-07-23T04:52:17;12.90;99.90
51567;DHT22;37657;53.182;5.638;2022-07-23T04:54:43;13.00;99.90
51567;DHT22;37657;53.182;5.638;2022-07-23T04:57:08;13.00;99.90
51567;DHT22;37657;53.182;5.638;2022-07-23T04:59:34;13.10;99.90
51567;DHT22;37657;53.182;5.638;2022-07-23T05:01:59;13.10;99.90
51567;DHT22;37657;53.182;5.638;2022-07-23T05:04:25;13.10;99.90
51567;DHT22;37657;53.182;5.638;2022-07-23T05:06:50;13.30;99.90
51567;DHT22;37657;53.182;5.638;2022-07-23T05:09:16;13.30;99.90
51567;DHT22;37657;53.182;5.638;2022-07-23T05:11:41;13.50;99.90
51567;DHT22;37657;53.182;5.638;2022-07-23T05:14:07;13.50;99.90
51567;DHT22;37657;53.182;5.638;2022-07-23T05:16:32;13.60;99.90
51567;DHT22;37657;53.182;5.638;2022-07-23T05:18:58;13.80;99.90
51567;DHT22;37657;53.182;5.638;2022-07-23T05:21:23;13.80;99.90
51567;DHT22;37657;53.182;5.638;2022-07-23T05:23:49;14.00;99.90
51567;DHT22;37657;53.182;5.638;2022-07-23T05:26:15;14.10;99.90
51567;DHT22;37657;53.182;5.638;2022-07-23T05:28:40;14.30;99.90
51567;DHT22;37657;53.182;5.638;2022-07-23T05:31:06;14.30;99.90
51567;DHT22;37657;53.182;5.638;2022-07-23T05:33:31;14.40;99.90
51567;DHT22;37657;53.182;5.638;2022-07-23T05:36:04;14.60;99.90
51567;DHT22;37657;53.182;5.638;2022-07-23T05:38:29;14.80;99.90
51567;DHT22;37657;53.182;5.638;2022-07-23T05:40:55;14.80;99.90
51567;DHT22;37657;53.182;5.638;2022-07-23T05:43:21;15.00;99.90
51567;DHT22;37657;53.182;5.638;2022-07-23T05:45:47;15.20;99.90
51567;DHT22;37657;53.182;5.638;2022-07-23T05:48:12;15.20;99.90
51567;DHT22;37657;53.182;5.638;2022-07-23T05:50:38;15.30;99.90
51567;DHT22;37657;53.182;5.638;2022-07-23T05:53:03;15.50;99.90
51567;DHT22;37657;53.182;5.638;2022-07-23T05:55:29;15.50;99.90
51567;DHT22;37657;53.182;5.638;2022-07-23T05:57:57;15.60;99.90
51567;DHT22;37657;53.182;5.638;2022-07-23T06:00:24;15.70;99.90
51567;DHT22;37657;53.182;5.638;2022-07-23T06:02:50;15.80;99.90
51567;DHT22;37657;53.182;5.638;2022-07-23T06:05:16;15.90;99.90
51567;DHT22;37657;53.182;5.638;2022-07-23T06:07:41;16.00;99.90
51567;DHT22;37657;53.182;5.638;2022-07-23T06:10:08;16.00;99.90
51567;DHT22;37657;53.182;5.638;2022-07-23T06:12:34;16.10;99.90
51567;DHT22;37657;53.182;5.638;2022-07-23T06:15:00;16.20;99.90
51567;DHT22;37657;53.182;5.638;2022-07-23T06:17:26;16.30;99.90
51567;DHT22;37657;53.182;5.638;2022-07-23T06:19:52;16.30;99.90
51567;DHT22;37657;53.182;5.638;2022-07-23T06:22:18;16.30;99.90
51567;DHT22;37657;53.182;5.638;2022-07-23T06:24:43;16.40;99.90
51567;DHT22;37657;53.182;5.638;2022-07-23T06:27:09;16.60;99.90
51567;DHT22;37657;53.182;5.638;2022-07-23T06:29:34;16.60;99.90
51567;DHT22;37657;53.182;5.638;2022-07-23T06:32:00;16.70;99.90
51567;DHT22;37657;53.182;5.638;2022-07-23T06:34:25;16.80;99.90
51567;DHT22;37657;53.182;5.638;2022-07-23T06:36:51;16.80;99.90
51567;DHT22;37657;53.182;5.638;2022-07-23T06:39:17;16.90;99.90
51567;DHT22;37657;53.182;5.638;2022-07-23T06:41:42;17.00;99.90
51567;DHT22;37657;53.182;5.638;2022-07-23T06:44:08;17.00;99.90
51567;DHT22;37657;53.182;5.638;2022-07-23T06:46:34;17.10;99.90
51567;DHT22;37657;53.182;5.638;2022-07-23T06:48:59;17.20;99.90
51567;DHT22;37657;53.182;5.638;2022-07-23T06:51:25;17.30;99.90
51567;DHT22;37657;53.182;5.638;2022-07-23T06:53:50;17.30;99.90
51567;DHT22;37657;53.182;5.638;2022-07-23T06:56:16;17.30;99.90
51567;DHT22;37657;53.182;5.638;2022-07-23T06:58:42;17.30;99.90
51567;DHT22;37657;53.182;5.638;2022-07-23T07:01:07;17.30;99.90
51567;DHT22;37657;53.182;5.638;2022-07-23T07:03:33;17.30;99.90
51567;DHT22;37657;53.182;5.638;2022-07-23T07:05:58;17.30;99.90
51567;DHT22;37657;53.182;5.638;2022-07-23T07:08:24;17.30;99.90
51567;DHT22;37657;53.182;5.638;2022-07-23T07:10:50;17.40;99.90
51567;DHT22;37657;53.182;5.638;2022-07-23T07:13:16;17.40;99.90
51567;DHT22;37657;53.182;5.638;2022-07-23T07:15:41;17.40;99.90
51567;DHT22;37657;53.182;5.638;2022-07-23T07:18:07;17.40;99.90
51567;DHT22;37657;53.182;5.638;2022-07-23T07:20:33;17.40;99.90
51567;DHT22;37657;53.182;5.638;2022-07-23T07:22:58;17.30;99.90
51567;DHT22;37657;53.182;5.638;2022-07-23T07:25:24;17.40;99.90
51567;DHT22;37657;53.182;5.638;2022-07-23T07:27:49;17.40;99.90
51567;DHT22;37657;53.182;5.638;2022-07-23T07:30:15;17.40;99.90
51567;DHT22;37657;53.182;5.638;2022-07-23T07:32:41;17.40;99.90
51567;DHT22;37657;53.182;5.638;2022-07-23T07:35:07;17.30;99.90
51567;DHT22;37657;53.182;5.638;2022-07-23T07:37:33;17.30;99.90
51567;DHT22;37657;53.182;5.638;2022-07-23T07:39:58;17.30;99.90
51567;DHT22;37657;53.182;5.638;2022-07-23T07:42:24;17.30;99.90
51567;DHT22;37657;53.182;5.638;2022-07-23T07:44:50;17.20;99.90
51567;DHT22;37657;53.182;5.638;2022-07-23T07:47:15;17.20;99.90
51567;DHT22;37657;53.182;5.638;2022-07-23T07:49:42;17.20;99.90
51567;DHT22;37657;53.182;5.638;2022-07-23T07:52:08;17.10;99.90
51567;DHT22;37657;53.182;5.638;2022-07-23T07:54:34;17.00;99.90
51567;DHT22;37657;53.182;5.638;2022-07-23T07:56:59;17.00;99.90
51567;DHT22;37657;53.182;5.638;2022-07-23T07:59:25;17.00;99.90
51567;DHT22;37657;53.182;5.638;2022-07-23T08:01:51;16.90;99.90
51567;DHT22;37657;53.182;5.638;2022-07-23T08:04:16;16.90;99.90
51567;DHT22;37657;53.182;5.638;2022-07-23T08:06:42;16.90;99.90
51567;DHT22;37657;53.182;5.638;2022-07-23T08:09:08;16.90;99.90
51567;DHT22;37657;53.182;5.638;2022-07-23T08:11:34;16.90;99.90
51567;DHT22;37657;53.182;5.638;2022-07-23T08:13:59;16.90;99.90
51567;DHT22;37657;53.182;5.638;2022-07-23T08:16:28;16.90;99.90
51567;DHT22;37657;53.182;5.638;2022-07-23T08:18:53;17.00;99.90
51567;DHT22;37657;53.182;5.638;2022-07-23T08:21:19;17.00;99.90
51567;DHT22;37657;53.182;5.638;2022-07-23T08:23:45;17.00;99.90
51567;DHT22;37657;53.182;5.638;2022-07-23T08:26:10;17.10;99.90
51567;DHT22;37657;53.182;5.638;2022-07-23T08:28:36;17.10;99.90
51567;DHT22;37657;53.182;5.638;2022-07-23T08:31:01;17.10;99.90
51567;DHT22;37657;53.182;5.638;2022-07-23T08:33:27;17.10;99.90
51567;DHT22;37657;53.182;5.638;2022-07-23T08:35:53;17.10;99.90
51567;DHT22;37657;53.182;5.638;2022-07-23T08:38:20;17.10;99.90
51567;DHT22;37657;53.182;5.638;2022-07-23T08:40:52;17.20;99.90
51567;DHT22;37657;53.182;5.638;2022-07-23T08:43:21;17.20;99.90
51567;DHT22;37657;53.182;5.638;2022-07-23T08:45:49;17.30;99.90
51567;DHT22;37657;53.182;5.638;2022-07-23T08:48:18;17.30;99.90
51567;DHT22;37657;53.182;5.638;2022-07-23T08:50:46;17.40;99.90
51567;DHT22;37657;53.182;5.638;2022-07-23T08:53:13;17.50;99.90
51567;DHT22;37657;53.182;5.638;2022-07-23T08:55:39;17.60;99.90
51567;DHT22;37657;53.182;5.638;2022-07-23T08:58:05;17.70;99.90
51567;DHT22;37657;53.182;5.638;2022-07-23T09:00:32;17.90;99.90
51567;DHT22;37657;53.182;5.638;2022-07-23T09:02:58;18.00;99.90
51567;DHT22;37657;53.182;5.638;2022-07-23T09:05:24;18.00;99.90
51567;DHT22;37657;53.182;5.638;2022-07-23T09:08:09;18.00;99.90
51567;DHT22;37657;53.182;5.638;2022-07-23T09:16:03;18.20;99.90
51567;DHT22;37657;53.182;5.638;2022-07-23T09:18:30;18.10;99.90
51567;DHT22;37657;53.182;5.638;2022-07-23T09:26:30;18.20;99.90
51567;DHT22;37657;53.182;5.638;2022-07-23T09:29:02;18.30;99.90
51567;DHT22;37657;53.182;5.638;2022-07-23T09:31:56;18.30;99.90
51567;DHT22;37657;53.182;5.638;2022-07-23T09:34:24;18.40;99.90
51567;DHT22;37657;53.182;5.638;2022-07-23T09:36:52;18.50;99.90
51567;DHT22;37657;53.182;5.638;2022-07-23T09:39:38;18.60;99.90
51567;DHT22;37657;53.182;5.638;2022-07-23T09:42:24;18.80;99.90
51567;DHT22;37657;53.182;5.638;2022-07-23T09:44:52;19.00;99.90
51567;DHT22;37657;53.182;5.638;2022-07-23T09:47:18;19.10;99.90
51567;DHT22;37657;53.182;5.638;2022-07-23T09:50:04;19.10;99.90
51567;DHT22;37657;53.182;5.638;2022-07-23T09:52:32;19.10;99.90
51567;DHT22;37657;53.182;5.638;2022-07-23T09:55:00;19.10;99.90
51567;DHT22;37657;53.182;5.638;2022-07-23T09:57:26;19.10;99.90
51567;DHT22;37657;53.182;5.638;2022-07-23T09:59:52;19.20;99.90
51567;DHT22;37657;53.182;5.638;2022-07-23T10:02:18;19.40;99.90
51567;DHT22;37657;53.182;5.638;2022-07-23T10:04:45;19.50;99.90
51567;DHT22;37657;53.182;5.638;2022-07-23T10:07:11;19.40;99.90
51567;DHT22;37657;53.182;5.638;2022-07-23T10:09:42;19.20;99.90
51567;DHT22;37657;53.182;5.638;2022-07-23T10:12:13;19.10;99.90
51567;DHT22;37657;53.182;5.638;2022-07-23T10:14:40;19.00;99.90
51567;DHT22;37657;53.182;5.638;2022-07-23T10:17:06;19.20;99.90
51567;DHT22;37657;53.182;5.638;2022-07-23T10:19:32;19.30;99.90
51567;DHT22;37657;53.182;5.638;2022-07-23T10:22:11;19.40;99.90
51567;DHT22;37657;53.182;5.638;2022-07-23T10:30:30;19.90;99.90
51567;DHT22;37657;53.182;5.638;2022-07-23T10:33:20;20.10;99.90
51567;DHT22;37657;53.182;5.638;2022-07-23T10:36:07;20.40;99.90
51567;DHT22;37657;53.182;5.638;2022-07-23T10:38:40;20.60;99.90
51567;DHT22;37657;53.182;5.638;2022-07-23T10:41:08;20.30;99.90
51567;DHT22;37657;53.182;5.638;2022-07-23T10:43:33;20.10;99.90
51567;DHT22;37657;53.182;5.638;2022-07-23T10:46:22;20.20;99.90
51567;DHT22;37657;53.182;5.638;2022-07-23T10:49:28;20.40;99.90
51567;DHT22;37657;53.182;5.638;2022-07-23T10:52:17;20.50;99.90
51567;DHT22;37657;53.182;5.638;2022-07-23T10:57:11;20.50;99.90
51567;DHT22;37657;53.182;5.638;2022-07-23T11:02:33;20.30;99.90
51567;DHT22;37657;53.182;5.638;2022-07-23T11:05:01;20.30;99.90
51567;DHT22;37657;53.182;5.638;2022-07-23T11:07:27;20.40;99.90
51567;DHT22;37657;53.182;5.638;2022-07-23T11:09:53;20.40;99.90
51567;DHT22;37657;53.182;5.638;2022-07-23T11:15:12;20.30;99.90
51567;DHT22;37657;53.182;5.638;2022-07-23T11:20:19;20.40;99.90
51567;DHT22;37657;53.182;5.638;2022-07-23T11:22:46;20.50;99.90
51567;DHT22;37657;53.182;5.638;2022-07-23T11:27:50;20.80;99.90
51567;DHT22;37657;53.182;5.638;2022-07-23T11:35:45;20.80;99.90
51567;DHT22;37657;53.182;5.638;2022-07-23T11:38:17;20.80;99.90
51567;DHT22;37657;53.182;5.638;2022-07-23T11:40:45;20.90;99.90
51567;DHT22;37657;53.182;5.638;2022-07-23T11:43:11;20.90;99.90
51567;DHT22;37657;53.182;5.638;2022-07-23T11:45:42;21.00;99.90
51567;DHT22;37657;53.182;5.638;2022-07-23T11:48:17;20.90;99.90
51567;DHT22;37657;53.182;5.638;2022-07-23T11:50:43;20.80;99.90
51567;DHT22;37657;53.182;5.638;2022-07-23T11:53:08;20.90;99.90
51567;DHT22;37657;53.182;5.638;2022-07-23T11:55:34;21.10;99.90
51567;DHT22;37657;53.182;5.638;2022-07-23T11:58:00;20.90;99.90
51567;DHT22;37657;53.182;5.638;2022-07-23T12:00:28;20.60;99.90
51567;DHT22;37657;53.182;5.638;2022-07-23T12:02:57;20.50;99.90
51567;DHT22;37657;53.182;5.638;2022-07-23T12:05:32;20.30;99.90
51567;DHT22;37657;53.182;5.638;2022-07-23T12:07:59;20.20;99.90
51567;DHT22;37657;53.182;5.638;2022-07-23T12:10:26;20.20;99.90
51567;DHT22;37657;53.182;5.638;2022-07-23T12:13:03;20.10;99.90
51567;DHT22;37657;53.182;5.638;2022-07-23T12:15:50;20.20;99.90
51567;DHT22;37657;53.182;5.638;2022-07-23T12:18:21;20.10;99.90
51567;DHT22;37657;53.182;5.638;2022-07-23T12:20:49;20.10;99.90
51567;DHT22;37657;53.182;5.638;2022-07-23T12:23:17;20.30;99.90
51567;DHT22;37657;53.182;5.638;2022-07-23T12:25:44;20.50;99.90
51567;DHT22;37657;53.182;5.638;2022-07-23T12:28:17;20.60;99.90
51567;DHT22;37657;53.182;5.638;2022-07-23T12:30:49;20.60;99.90
51567;DHT22;37657;53.182;5.638;2022-07-23T12:33:22;20.50;99.90
51567;DHT22;37657;53.182;5.638;2022-07-23T12:35:49;20.60;99.90
51567;DHT22;37657;53.182;5.638;2022-07-23T12:38:17;20.60;99.90
51567;DHT22;37657;53.182;5.638;2022-07-23T12:40:48;20.60;99.90
51567;DHT22;37657;53.182;5.638;2022-07-23T12:51:17;21.30;99.90
51567;DHT22;37657;53.182;5.638;2022-07-23T12:53:45;21.50;99.90
51567;DHT22;37657;53.182;5.638;2022-07-23T12:56:19;21.60;99.90
51567;DHT22;37657;53.182;5.638;2022-07-23T12:58:50;21.70;99.90
51567;DHT22;37657;53.182;5.638;2022-07-23T13:01:23;21.80;99.90
51567;DHT22;37657;53.182;5.638;2022-07-23T13:04:03;21.90;99.90
51567;DHT22;37657;53.182;5.638;2022-07-23T13:06:32;22.00;99.90
51567;DHT22;37657;53.182;5.638;2022-07-23T13:08:58;22.10;99.90
51567;DHT22;37657;53.182;5.638;2022-07-23T13:11:24;22.10;99.90
51567;DHT22;37657;53.182;5.638;2022-07-23T13:13:49;22.00;99.90
51567;DHT22;37657;53.182;5.638;2022-07-23T13:16:15;22.00;99.90
51567;DHT22;37657;53.182;5.638;2022-07-23T13:18:41;22.10;99.90
51567;DHT22;37657;53.182;5.638;2022-07-23T13:21:07;21.90;99.90
51567;DHT22;37657;53.182;5.638;2022-07-23T13:23:33;21.80;99.90
51567;DHT22;37657;53.182;5.638;2022-07-23T13:25:59;22.00;99.90
51567;DHT22;37657;53.182;5.638;2022-07-23T13:28:25;22.00;99.90
51567;DHT22;37657;53.182;5.638;2022-07-23T13:30:51;22.00;99.90
51567;DHT22;37657;53.182;5.638;2022-07-23T13:33:22;21.90;99.90
51567;DHT22;37657;53.182;5.638;2022-07-23T13:35:48;21.90;99.90
51567;DHT22;37657;53.182;5.638;2022-07-23T13:38:14;21.90;99.90
51567;DHT22;37657;53.182;5.638;2022-07-23T13:40:43;21.90;99.90
51567;DHT22;37657;53.182;5.638;2022-07-23T13:43:14;21.90;99.90
51567;DHT22;37657;53.182;5.638;2022-07-23T13:45:41;22.00;99.90
51567;DHT22;37657;53.182;5.638;2022-07-23T13:48:08;22.20;99.90
51567;DHT22;37657;53.182;5.638;2022-07-23T13:50:35;22.30;99.90
51567;DHT22;37657;53.182;5.638;2022-07-23T13:53:06;22.30;99.90
51567;DHT22;37657;53.182;5.638;2022-07-23T13:55:32;22.20;99.90
51567;DHT22;37657;53.182;5.638;2022-07-23T13:57:59;22.20;99.90
51567;DHT22;37657;53.182;5.638;2022-07-23T14:00:25;22.30;99.90
51567;DHT22;37657;53.182;5.638;2022-07-23T14:02:52;22.40;99.90
51567;DHT22;37657;53.182;5.638;2022-07-23T14:05:18;22.50;99.90
51567;DHT22;37657;53.182;5.638;2022-07-23T14:07:43;22.60;99.90
51567;DHT22;37657;53.182;5.638;2022-07-23T14:10:10;22.70;99.90
51567;DHT22;37657;53.182;5.638;2022-07-23T14:12:36;22.70;99.90
51567;DHT22;37657;53.182;5.638;2022-07-23T14:15:03;22.70;99.90
51567;DHT22;37657;53.182;5.638;2022-07-23T14:17:29;22.60;99.90
51567;DHT22;37657;53.182;5.638;2022-07-23T14:19:54;22.70;99.90
51567;DHT22;37657;53.182;5.638;2022-07-23T14:22:20;22.60;99.90
51567;DHT22;37657;53.182;5.638;2022-07-23T14:24:45;22.70;99.90
51567;DHT22;37657;53.182;5.638;2022-07-23T14:27:11;22.70;99.90
51567;DHT22;37657;53.182;5.638;2022-07-23T14:29:36;22.80;99.90
51567;DHT22;37657;53.182;5.638;2022-07-23T14:32:03;22.70;99.90
51567;DHT22;37657;53.182;5.638;2022-07-23T14:34:29;22.80;99.90
51567;DHT22;37657;53.182;5.638;2022-07-23T14:36:55;22.90;99.90
51567;DHT22;37657;53.182;5.638;2022-07-23T14:39:20;22.90;99.90
51567;DHT22;37657;53.182;5.638;2022-07-23T14:41:46;23.00;99.90
51567;DHT22;37657;53.182;5.638;2022-07-23T14:44:11;23.00;99.90
51567;DHT22;37657;53.182;5.638;2022-07-23T14:46:37;23.10;99.90
51567;DHT22;37657;53.182;5.638;2022-07-23T14:49:03;23.20;99.90
51567;DHT22;37657;53.182;5.638;2022-07-23T14:51:29;23.20;99.90
51567;DHT22;37657;53.182;5.638;2022-07-23T14:53:54;23.10;99.90
51567;DHT22;37657;53.182;5.638;2022-07-23T14:56:20;23.00;99.90
51567;DHT22;37657;53.182;5.638;2022-07-23T14:58:45;22.80;99.90
51567;DHT22;37657;53.182;5.638;2022-07-23T15:01:11;22.80;99.90
51567;DHT22;37657;53.182;5.638;2022-07-23T15:03:37;22.90;99.90
51567;DHT22;37657;53.182;5.638;2022-07-23T15:06:04;23.00;99.90
51567;DHT22;37657;53.182;5.638;2022-07-23T15:08:30;23.00;99.90
51567;DHT22;37657;53.182;5.638;2022-07-23T15:10:55;23.00;99.90
51567;DHT22;37657;53.182;5.638;2022-07-23T15:13:21;23.00;99.90
51567;DHT22;37657;53.182;5.638;2022-07-23T15:15:47;23.00;99.90
51567;DHT22;37657;53.182;5.638;2022-07-23T15:18:12;23.00;99.90
51567;DHT22;37657;53.182;5.638;2022-07-23T15:20:38;23.00;99.90
51567;DHT22;37657;53.182;5.638;2022-07-23T15:23:05;23.00;99.90
51567;DHT22;37657;53.182;5.638;2022-07-23T15:25:30;23.00;99.90
51567;DHT22;37657;53.182;5.638;2022-07-23T15:27:59;23.10;99.90
51567;DHT22;37657;53.182;5.638;2022-07-23T15:30:25;23.10;99.90
51567;DHT22;37657;53.182;5.638;2022-07-23T15:32:51;23.10;99.90
51567;DHT22;37657;53.182;5.638;2022-07-23T15:35:17;23.10;99.90
51567;DHT22;37657;53.182;5.638;2022-07-23T15:37:42;23.10;99.90
51567;DHT22;37657;53.182;5.638;2022-07-23T15:40:09;23.20;99.90
51567;DHT22;37657;53.182;5.638;2022-07-23T15:42:34;23.20;99.90
51567;DHT22;37657;53.182;5.638;2022-07-23T15:45:00;23.30;99.90
51567;DHT22;37657;53.182;5.638;2022-07-23T15:47:25;23.20;99.90
51567;DHT22;37657;53.182;5.638;2022-07-23T15:49:51;23.20;99.90
51567;DHT22;37657;53.182;5.638;2022-07-23T15:52:17;23.20;99.90
51567;DHT22;37657;53.182;5.638;2022-07-23T15:54:42;23.10;99.90
51567;DHT22;37657;53.182;5.638;2022-07-23T15:57:08;23.10;99.90
51567;DHT22;37657;53.182;5.638;2022-07-23T15:59:34;23.10;99.90
51567;DHT22;37657;53.182;5.638;2022-07-23T16:02:00;23.00;99.90
51567;DHT22;37657;53.182;5.638;2022-07-23T16:04:25;23.00;99.90
51567;DHT22;37657;53.182;5.638;2022-07-23T16:06:51;23.00;99.90
51567;DHT22;37657;53.182;5.638;2022-07-23T16:09:17;23.00;99.90
51567;DHT22;37657;53.182;5.638;2022-07-23T16:11:43;23.00;99.90